Time;durP1;ratioP1;P1;durP2;ratioP2;P2;SDS_P1;SDS_P2;PMS_P1;PMS_P2;Temp;Humidity;BMP_temperature;BMP_pressure;BME280_temperature;BME280_humidity;BME280_pressure;Samples;Min_cycle;Max_cycle;Signal;HPM_P1;HPM_P2
2022/12/29 00:01:14;;;;;;;20.15;8.05;;;7.30;96.00;;;;;;5084500;28;20052;-57
2022/12/29 00:03:39;;;;;;;18.73;8.07;;;7.30;95.90;;;;;;5085913;28;20058;-57
2022/12/29 00:06:05;;;;;;;25.63;8.30;;;7.30;95.90;;;;;;5084480;28;20067;-57
2022/12/29 00:08:39;;;;;;;14.70;7.50;;;7.30;95.90;;;;;;5084313;28;20092;-57
2022/12/29 00:11:16;;;;;;;17.77;8.75;;;7.30;96.00;;;;;;5084399;28;20132;-57
2022/12/29 00:16:26;;;;;;;17.40;8.18;;;7.30;96.00;;;;;;5084492;28;20032;-57
2022/12/29 00:18:51;;;;;;;18.98;8.57;;;7.30;95.90;;;;;;5084441;28;20028;-57
2022/12/29 00:35:12;;;;;;;16.08;8.55;;;7.30;95.90;;;;;;5083978;28;20089;-57
2022/12/29 00:45:54;;;;;;;15.98;8.48;;;7.40;96.00;;;;;;5084962;28;20040;-57
2022/12/29 00:49:30;;;;;;;17.92;8.50;;;7.30;95.90;;;;;;5085041;28;20028;-56
2022/12/29 00:51:06;;;;;;;14.90;7.55;;;7.30;96.00;;;;;;5083819;28;20036;-57
2022/12/29 00:53:32;;;;;;;14.73;8.65;;;7.30;96.00;;;;;;5083758;28;20062;-57
2022/12/29 00:55:57;;;;;;;10.95;7.55;;;7.30;96.00;;;;;;5082975;28;20126;-56
2022/12/29 00:58:23;;;;;;;13.63;8.00;;;7.40;96.10;;;;;;5083499;28;20051;-57
2022/12/29 01:00:48;;;;;;;16.08;7.65;;;7.40;96.10;;;;;;5066816;28;20115;-57
2022/12/29 01:03:14;;;;;;;15.75;7.90;;;7.40;96.10;;;;;;5083538;28;20074;-57
2022/12/29 01:05:39;;;;;;;15.43;8.30;;;7.30;96.30;;;;;;5083607;28;20036;-57
2022/12/29 01:08:05;;;;;;;16.77;8.10;;;7.30;96.00;;;;;;5083475;28;20063;-57
2022/12/29 01:10:30;;;;;;;15.20;7.55;;;7.40;96.00;;;;;;5083289;28;20048;-57
2022/12/29 01:12:56;;;;;;;12.35;7.43;;;7.60;96.10;;;;;;5083424;28;20097;-57
2022/12/29 01:15:22;;;;;;;16.17;7.82;;;7.40;96.10;;;;;;5084659;28;20029;-56
2022/12/29 01:17:47;;;;;;;17.65;7.88;;;7.40;96.10;;;;;;5083418;28;20051;-56
2022/12/29 01:20:13;;;;;;;14.90;7.53;;;7.40;96.10;;;;;;5083316;28;20055;-57
2022/12/29 01:22:39;;;;;;;13.20;7.45;;;7.40;96.10;;;;;;5083452;28;20029;-56
2022/12/29 01:25:05;;;;;;;11.48;7.03;;;7.40;96.10;;;;;;5083226;28;20028;-56
2022/12/29 01:27:30;;;;;;;13.80;7.00;;;7.40;96.10;;;;;;5083462;28;20035;-57
2022/12/29 01:29:56;;;;;;;16.23;7.30;;;7.40;96.10;;;;;;5083253;28;20481;-57
2022/12/29 01:32:22;;;;;;;11.95;7.00;;;7.40;96.20;;;;;;5083270;28;20033;-56
2022/12/29 01:34:47;;;;;;;12.45;7.45;;;7.30;96.20;;;;;;5083184;28;20024;-57
2022/12/29 01:37:13;;;;;;;13.18;6.93;;;7.30;96.20;;;;;;5083185;28;20457;-57
2022/12/29 01:39:38;;;;;;;12.18;7.45;;;7.40;96.20;;;;;;5083063;28;20024;-57
2022/12/29 01:42:04;;;;;;;14.95;7.00;;;7.40;96.20;;;;;;5083057;28;20035;-57
2022/12/29 01:44:59;;;;;;;13.93;7.45;;;7.40;96.20;;;;;;5082974;28;20057;-57
2022/12/29 01:48:03;;;;;;;13.23;8.68;;;7.40;96.20;;;;;;5083196;28;20037;-57
2022/12/29 01:50:29;;;;;;;13.45;8.07;;;7.40;96.20;;;;;;5078978;28;20044;-57
2022/12/29 01:52:57;;;;;;;14.75;7.75;;;7.40;96.30;;;;;;5083136;28;20062;-56
2022/12/29 01:55:22;;;;;;;13.13;8.38;;;7.40;96.30;;;;;;5083072;28;20020;-57
2022/12/29 01:57:49;;;;;;;13.35;8.05;;;7.40;96.20;;;;;;5083039;28;20058;-57
2022/12/29 02:00:15;;;;;;;18.48;7.85;;;7.40;96.30;;;;;;5083160;28;20021;-56
2022/12/29 02:02:42;;;;;;;15.10;7.80;;;7.40;96.30;;;;;;5084433;28;20040;-57
2022/12/29 02:05:21;;;;;;;14.32;7.70;;;7.40;96.30;;;;;;5082966;28;20024;-57
2022/12/29 02:07:46;;;;;;;10.45;7.65;;;7.40;96.30;;;;;;5084269;28;20029;-55
2022/12/29 02:10:12;;;;;;;12.02;7.80;;;7.40;96.30;;;;;;5086507;28;20526;-57
2022/12/29 02:12:38;;;;;;;13.10;7.90;;;7.40;96.40;;;;;;5086757;28;20025;-57
2022/12/29 02:15:04;;;;;;;13.25;8.88;;;7.40;96.40;;;;;;5069829;28;20039;-56
2022/12/29 02:17:38;;;;;;;18.60;8.70;;;7.40;96.40;;;;;;5086761;28;20078;-56
2022/12/29 02:20:16;;;;;;;14.23;8.38;;;7.40;96.40;;;;;;5087985;28;20025;-57
2022/12/29 02:23:20;;;;;;;15.52;8.63;;;7.40;96.30;;;;;;5087571;28;20025;-57
2022/12/29 02:26:21;;;;;;;14.80;8.57;;;7.40;96.30;;;;;;5065315;28;20029;-57
2022/12/29 02:29:17;;;;;;;12.25;8.13;;;7.40;96.30;;;;;;5086164;28;20021;-57
2022/12/29 02:31:48;;;;;;;;;;;7.40;96.30;;;;;;5086466;28;20095;-57
2022/12/29 02:34:22;;;;;;;18.60;9.60;;;7.40;96.30;;;;;;5086236;28;19908;-57
2022/12/29 02:37:00;;;;;;;16.25;9.80;;;7.40;96.20;;;;;;5086298;28;20124;-57
2022/12/29 02:39:39;;;;;;;16.05;9.15;;;7.40;96.30;;;;;;5086228;28;20028;-56
2022/12/29 02:42:10;;;;;;;14.32;9.20;;;7.40;96.30;;;;;;5086138;28;20032;-57
2022/12/29 02:44:47;;;;;;;15.38;9.15;;;7.40;96.30;;;;;;5085923;28;20048;-57
2022/12/29 02:47:17;;;;;;;18.48;9.32;;;7.50;96.30;;;;;;5087384;28;20028;-56
2022/12/29 02:49:48;;;;;;;14.38;8.35;;;7.50;96.30;;;;;;5086017;28;20078;-57
2022/12/29 02:52:16;;;;;;;12.75;8.38;;;7.40;96.30;;;;;;5085919;28;20075;-57
2022/12/29 02:54:42;;;;;;;15.18;9.30;;;7.40;96.30;;;;;;5085758;28;20055;-57
2022/12/29 02:57:20;;;;;;;14.45;9.00;;;7.50;96.30;;;;;;5085779;28;20058;-56
2022/12/29 02:59:45;;;;;;;16.92;9.00;;;7.50;96.30;;;;;;5085557;28;20064;-57
2022/12/29 03:02:24;;;;;;;13.15;8.20;;;7.50;96.30;;;;;;5085572;28;20043;-57
2022/12/29 03:05:08;;;;;;;10.80;8.35;;;7.50;96.30;;;;;;5085807;28;20516;-57
2022/12/29 03:07:48;;;;;;;14.13;8.18;;;7.50;96.30;;;;;;5086663;28;20066;-56
2022/12/29 03:10:19;;;;;;;11.35;7.50;;;7.50;96.30;;;;;;5087201;28;20054;-57
2022/12/29 03:16:26;;;;;;;12.65;7.22;;;7.50;96.30;;;;;;5086879;28;20039;-57
2022/12/29 03:18:56;;;;;;;10.43;6.90;;;7.60;96.30;;;;;;5082535;28;20043;-57
2022/12/29 03:22:26;;;;;;;12.90;7.78;;;7.60;96.30;;;;;;5085284;28;20040;-57
2022/12/29 03:24:10;;;;;;;9.60;6.97;;;7.60;96.30;;;;;;5086731;28;20059;-57
2022/12/29 03:26:36;;;;;;;11.20;7.10;;;7.60;96.30;;;;;;5068364;28;20037;-57
2022/12/29 03:29:01;;;;;;;12.98;7.07;;;7.60;96.30;;;;;;5085077;28;20029;-57
2022/12/29 03:31:27;;;;;;;12.48;7.90;;;7.60;96.30;;;;;;5085271;28;20052;-57
2022/12/29 03:33:53;;;;;;;14.45;8.57;;;7.60;96.30;;;;;;5085079;28;20021;-57
2022/12/29 03:36:33;;;;;;;13.23;8.40;;;7.60;96.30;;;;;;5085113;28;20147;-57
2022/12/29 03:39:08;;;;;;;13.13;7.95;;;7.60;96.30;;;;;;5084891;28;20036;-57
2022/12/29 03:41:34;;;;;;;14.50;8.23;;;7.60;96.30;;;;;;5085201;28;20032;-58
2022/12/29 03:43:59;;;;;;;10.13;7.53;;;7.60;96.30;;;;;;5084697;28;20085;-57
2022/12/29 03:46:25;;;;;;;13.35;8.30;;;7.60;96.40;;;;;;5085002;28;20029;-57
2022/12/29 03:48:51;;;;;;;11.50;8.32;;;7.60;96.30;;;;;;5086179;28;20032;-57
2022/12/29 03:51:16;;;;;;;10.70;7.50;;;7.60;96.30;;;;;;5086572;28;20102;-56
2022/12/29 03:53:42;;;;;;;10.73;7.53;;;7.60;96.30;;;;;;5068008;28;20051;-57
2022/12/29 03:56:07;;;;;;;13.15;8.23;;;7.60;96.30;;;;;;5068369;28;20054;-56
2022/12/29 03:58:33;;;;;;;9.73;6.85;;;7.60;96.30;;;;;;5068183;28;20436;-57
2022/12/29 04:00:58;;;;;;;11.23;7.53;;;7.70;96.40;;;;;;5084531;28;20074;-56
2022/12/29 04:03:24;;;;;;;11.65;7.18;;;7.60;96.30;;;;;;5085615;28;20052;-57
2022/12/29 04:05:49;;;;;;;9.02;6.75;;;7.60;96.30;;;;;;5084583;28;20036;-57
2022/12/29 04:08:15;;;;;;;13.27;7.60;;;7.60;96.30;;;;;;5084155;28;20072;-57
2022/12/29 04:10:40;;;;;;;9.65;7.10;;;7.70;96.40;;;;;;5084293;28;20043;-56
2022/12/29 04:13:06;;;;;;;9.18;6.30;;;7.70;96.40;;;;;;5085704;28;20021;-57
2022/12/29 04:15:31;;;;;;;12.13;7.22;;;7.70;96.40;;;;;;5084412;28;20025;-57
2022/12/29 04:17:57;;;;;;;13.50;7.22;;;7.60;96.40;;;;;;5084067;28;20043;-57
2022/12/29 04:23:07;;;;;;;10.65;6.93;;;7.70;96.30;;;;;;5085338;28;20059;-57
2022/12/29 04:25:32;;;;;;;9.07;6.65;;;7.70;96.30;;;;;;5085217;28;20033;-56
2022/12/29 04:27:58;;;;;;;12.13;6.70;;;7.70;96.30;;;;;;5083899;28;20117;-56
2022/12/29 04:30:23;;;;;;;11.98;6.78;;;7.70;96.30;;;;;;5083976;28;20020;-56
2022/12/29 04:32:49;;;;;;;7.70;5.85;;;7.70;96.30;;;;;;5085123;28;20074;-56
2022/12/29 04:35:14;;;;;;;9.27;6.03;;;7.70;96.30;;;;;;5083907;28;20048;-57
2022/12/29 04:37:40;;;;;;;10.40;6.75;;;7.70;96.30;;;;;;5085006;28;20131;-56
2022/12/29 04:40:06;;;;;;;12.55;6.55;;;7.70;96.20;;;;;;5083713;28;20084;-57
2022/12/29 04:42:32;;;;;;;6.88;5.72;;;7.70;96.30;;;;;;5085065;28;20043;-57
2022/12/29 04:44:57;;;;;;;8.52;6.28;;;7.80;96.30;;;;;;5083590;28;20025;-57
2022/12/29 04:47:23;;;;;;;8.45;5.53;;;7.80;96.40;;;;;;5083758;28;20025;-57
2022/12/29 04:49:48;;;;;;;10.52;5.88;;;7.80;96.40;;;;;;5083540;28;20032;-57
2022/12/29 04:52:14;;;;;;;13.63;6.43;;;7.80;96.40;;;;;;5083670;28;20024;-57
2022/12/29 04:54:39;;;;;;;8.43;6.65;;;7.80;96.40;;;;;;5083721;28;20043;-57
2022/12/29 04:57:05;;;;;;;8.38;6.20;;;7.80;96.40;;;;;;5083483;28;20021;-56
2022/12/29 04:59:30;;;;;;;9.10;6.38;;;7.80;96.30;;;;;;5083387;28;20024;-57
2022/12/29 05:01:56;;;;;;;11.10;6.35;;;7.90;96.30;;;;;;5084691;28;20043;-56
2022/12/29 05:04:21;;;;;;;8.48;6.20;;;7.90;96.40;;;;;;5083474;28;20502;-56
2022/12/29 05:06:47;;;;;;;10.27;6.13;;;7.90;96.40;;;;;;5066657;28;20035;-56
2022/12/29 05:09:13;;;;;;;10.93;6.57;;;7.90;96.50;;;;;;5083347;28;20025;-56
2022/12/29 05:11:38;;;;;;;10.13;5.78;;;7.90;96.50;;;;;;5083305;28;20100;-57
2022/12/29 05:14:04;;;;;;;9.52;6.05;;;7.90;96.60;;;;;;5084798;28;20032;-57
2022/12/29 05:16:29;;;;;;;9.85;6.22;;;7.90;96.50;;;;;;5084586;28;20029;-57
2022/12/29 05:18:55;;;;;;;9.93;5.90;;;7.90;96.40;;;;;;5083353;28;20034;-57
2022/12/29 05:21:20;;;;;;;13.07;6.10;;;8.00;96.50;;;;;;5083236;28;20044;-57
2022/12/29 05:23:46;;;;;;;12.52;5.63;;;7.90;96.50;;;;;;5083210;28;20032;-57
2022/12/29 05:26:11;;;;;;;9.75;6.20;;;7.90;96.50;;;;;;5083301;28;20043;-57
2022/12/29 05:28:37;;;;;;;13.57;5.70;;;7.90;96.60;;;;;;5083213;28;20036;-57
2022/12/29 05:31:02;;;;;;;13.43;5.57;;;7.90;96.70;;;;;;5084523;28;20037;-57
2022/12/29 05:33:28;;;;;;;17.85;5.70;;;8.00;96.80;;;;;;5083239;28;20047;-57
2022/12/29 05:35:53;;;;;;;10.85;6.00;;;8.00;96.90;;;;;;5083294;28;20024;-57
2022/12/29 05:38:19;;;;;;;14.45;6.28;;;8.00;97.00;;;;;;5084469;28;20322;-57
2022/12/29 05:40:44;;;;;;;9.60;5.25;;;7.90;97.00;;;;;;5084664;28;20040;-57
2022/12/29 05:43:10;;;;;;;8.57;5.10;;;8.00;97.10;;;;;;5085051;28;20056;-57
2022/12/29 05:45:36;;;;;;;7.57;4.90;;;8.00;97.10;;;;;;5087057;28;20044;-57
2022/12/29 05:48:01;;;;;;;10.40;5.50;;;8.00;97.20;;;;;;5087160;28;20055;-57
2022/12/29 05:50:27;;;;;;;9.68;5.50;;;8.00;97.20;;;;;;5086869;28;20079;-57
2022/12/29 05:52:52;;;;;;;7.72;5.43;;;8.00;97.20;;;;;;5087142;28;20089;-57
2022/12/29 05:55:18;;;;;;;10.55;5.15;;;8.00;97.20;;;;;;5087010;28;20039;-56
2022/12/29 05:57:43;;;;;;;8.63;4.95;;;8.00;97.20;;;;;;5086614;28;20053;-57
2022/12/29 06:00:10;;;;;;;8.23;5.53;;;8.00;97.20;;;;;;5088017;28;20023;-57
2022/12/29 06:02:35;;;;;;;7.90;4.85;;;8.00;97.20;;;;;;5088274;28;20120;-57
2022/12/29 06:05:01;;;;;;;10.43;5.95;;;8.00;97.20;;;;;;5088230;28;20021;-57
2022/12/29 06:07:26;;;;;;;7.97;4.57;;;8.00;97.20;;;;;;5088239;28;20043;-57
2022/12/29 06:09:52;;;;;;;11.77;5.55;;;8.00;97.20;;;;;;5086696;28;20035;-57
2022/12/29 06:12:17;;;;;;;6.90;5.35;;;8.00;97.20;;;;;;5086542;28;20074;-57
2022/12/29 06:14:43;;;;;;;11.48;5.47;;;8.00;97.20;;;;;;5086285;28;20062;-57
2022/12/29 06:17:09;;;;;;;11.65;5.20;;;8.00;97.20;;;;;;5086281;28;20028;-57
2022/12/29 06:19:35;;;;;;;7.97;4.80;;;8.00;97.20;;;;;;5086683;28;20013;-56
2022/12/29 06:22:00;;;;;;;7.38;5.25;;;8.00;97.20;;;;;;5087848;28;20110;-57
2022/12/29 06:24:26;;;;;;;6.53;5.00;;;8.00;97.20;;;;;;5087717;28;20024;-57
2022/12/29 06:26:51;;;;;;;5.85;4.40;;;8.00;97.20;;;;;;5086445;28;20055;-57
2022/12/29 06:29:17;;;;;;;6.72;4.93;;;8.00;97.10;;;;;;5086071;28;20034;-57
2022/12/29 06:31:45;;;;;;;6.10;4.72;;;8.00;97.10;;;;;;5086160;28;20040;-56
2022/12/29 06:34:11;;;;;;;6.03;4.65;;;8.00;97.00;;;;;;5085977;28;20052;-57
2022/12/29 06:36:37;;;;;;;6.93;4.32;;;8.00;96.80;;;;;;5069309;28;20035;-57
2022/12/29 06:39:03;;;;;;;5.20;4.18;;;8.00;96.70;;;;;;5086019;28;20020;-57
2022/12/29 06:41:28;;;;;;;9.02;5.00;;;8.00;96.70;;;;;;5086291;28;20036;-57
2022/12/29 06:43:54;;;;;;;7.75;4.40;;;8.00;96.70;;;;;;5069180;28;20036;-57
2022/12/29 06:46:19;;;;;;;9.30;4.43;;;8.00;96.70;;;;;;5086141;28;20176;-57
2022/12/29 06:48:45;;;;;;;5.72;4.25;;;8.10;96.80;;;;;;5087149;28;20079;-57
2022/12/29 06:51:10;;;;;;;6.07;4.28;;;8.10;96.80;;;;;;5085830;28;20063;-57
2022/12/29 06:53:36;;;;;;;7.40;4.72;;;8.10;96.80;;;;;;5084963;28;20465;-56
2022/12/29 06:56:01;;;;;;;5.63;4.40;;;8.00;96.70;;;;;;5085489;28;20353;-57
2022/12/29 06:58:27;;;;;;;4.68;3.80;;;8.10;96.70;;;;;;5068710;28;20025;-57
2022/12/29 07:00:52;;;;;;;8.52;4.47;;;8.10;96.80;;;;;;5085605;28;20033;-57
2022/12/29 07:03:18;;;;;;;5.85;3.97;;;8.10;96.70;;;;;;5085652;28;20028;-57
2022/12/29 07:05:43;;;;;;;7.90;4.30;;;8.10;96.70;;;;;;5086971;28;20032;-56
2022/12/29 07:08:09;;;;;;;5.75;4.20;;;8.10;96.70;;;;;;5085438;28;20518;-57
2022/12/29 07:10:35;;;;;;;6.70;4.50;;;8.10;96.70;;;;;;5085483;28;20033;-56
2022/12/29 07:13:00;;;;;;;6.10;3.97;;;8.10;96.70;;;;;;5085424;28;20028;-57
2022/12/29 07:15:26;;;;;;;5.72;3.70;;;8.10;96.70;;;;;;5085481;28;20060;-57
2022/12/29 07:17:51;;;;;;;5.88;3.65;;;8.10;96.70;;;;;;5085514;28;20043;-57
2022/12/29 07:20:17;;;;;;;5.43;3.80;;;8.10;96.70;;;;;;5086872;28;20131;-57
2022/12/29 07:22:42;;;;;;;5.68;3.85;;;8.10;96.60;;;;;;5085274;28;20459;-57
2022/12/29 07:25:08;;;;;;;7.35;3.60;;;8.10;96.60;;;;;;5086711;28;20055;-56
2022/12/29 07:27:34;;;;;;;5.72;4.03;;;8.10;96.50;;;;;;5085290;28;20024;-57
2022/12/29 07:29:59;;;;;;;6.88;3.38;;;8.20;96.80;;;;;;5085133;28;20060;-56
2022/12/29 07:32:25;;;;;;;5.82;3.67;;;8.20;96.50;;;;;;5085178;28;20033;-57
2022/12/29 07:34:50;;;;;;;4.40;3.25;;;8.20;96.50;;;;;;5086536;28;20032;-57
2022/12/29 07:37:16;;;;;;;5.40;3.47;;;8.20;96.50;;;;;;5085155;28;20497;-57
2022/12/29 07:39:41;;;;;;;5.70;3.97;;;8.20;96.50;;;;;;5084884;28;20367;-57
2022/12/29 07:42:07;;;;;;;5.15;3.75;;;8.20;96.60;;;;;;5084812;28;20040;-57
2022/12/29 07:44:32;;;;;;;5.15;3.70;;;8.20;96.60;;;;;;5085876;28;20032;-56
2022/12/29 07:46:58;;;;;;;5.13;3.20;;;8.20;96.60;;;;;;5084625;28;20029;-57
2022/12/29 07:49:24;;;;;;;3.88;2.90;;;8.20;96.90;;;;;;5084703;28;20058;-57
2022/12/29 07:51:49;;;;;;;6.90;3.88;;;8.20;96.60;;;;;;5085934;28;20024;-57
2022/12/29 07:54:17;;;;;;;8.65;3.55;;;8.20;96.60;;;;;;5084590;28;20123;-57
2022/12/29 07:56:43;;;;;;;6.00;3.10;;;8.20;96.60;;;;;;5084632;28;20032;-57
2022/12/29 07:59:09;;;;;;;6.75;3.30;;;8.30;96.60;;;;;;5084265;28;20024;-57
2022/12/29 08:01:34;;;;;;;5.80;2.88;;;8.30;96.50;;;;;;5081830;28;20047;-57
2022/12/29 08:04:00;;;;;;;6.10;3.03;;;8.30;96.50;;;;;;5086055;28;20041;-57
2022/12/29 08:06:25;;;;;;;3.97;3.17;;;8.30;96.40;;;;;;5084888;28;20071;-57
2022/12/29 08:08:51;;;;;;;4.32;3.00;;;8.30;96.40;;;;;;5091335;28;20021;-56
2022/12/29 08:11:16;;;;;;;4.50;2.85;;;8.30;96.30;;;;;;5064288;28;20037;-56
2022/12/29 08:13:42;;;;;;;5.57;3.35;;;8.30;96.40;;;;;;5103028;28;20119;-57
2022/12/29 08:16:08;;;;;;;4.85;2.63;;;8.30;96.30;;;;;;5089214;28;20036;-57
2022/12/29 08:18:33;;;;;;;7.00;3.05;;;8.40;96.30;;;;;;5084174;28;20060;-56
2022/12/29 08:21:03;;;;;;;4.95;3.05;;;8.40;96.30;;;;;;5064905;28;20443;-56
2022/12/29 08:23:28;;;;;;;6.72;2.95;;;8.40;96.30;;;;;;5105265;28;20048;-57
2022/12/29 08:26:01;;;;;;;10.15;2.97;;;8.40;96.30;;;;;;5085207;28;20037;-56
2022/12/29 08:28:27;;;;;;;4.70;3.00;;;8.40;96.20;;;;;;5084093;28;20090;-57
2022/12/29 08:30:53;;;;;;;9.73;2.97;;;8.50;96.30;;;;;;5086148;28;20399;-56
2022/12/29 08:33:18;;;;;;;11.85;3.60;;;8.50;96.30;;;;;;5093287;28;20028;-57
2022/12/29 08:35:44;;;;;;;12.23;3.42;;;8.50;96.50;;;;;;5102188;28;20028;-56
2022/12/29 08:38:11;;;;;;;6.38;3.25;;;8.50;96.50;;;;;;5087249;28;20404;-56
2022/12/29 08:40:36;;;;;;;15.35;3.60;;;8.50;96.40;;;;;;5104102;28;20139;-56
2022/12/29 08:43:02;;;;;;;11.52;3.17;;;8.50;96.30;;;;;;5068004;28;20016;-55
2022/12/29 08:45:28;;;;;;;20.17;3.65;;;8.60;96.40;;;;;;5081988;28;20100;-57
2022/12/29 08:47:53;;;;;;;14.57;3.45;;;8.60;96.70;;;;;;5084766;28;20047;-57
2022/12/29 08:50:19;;;;;;;19.58;3.65;;;8.60;96.40;;;;;;5095648;28;20466;-56
2022/12/29 08:52:44;;;;;;;12.98;3.30;;;8.60;96.40;;;;;;5097315;28;20040;-57
2022/12/29 08:55:10;;;;;;;20.92;3.58;;;8.70;96.40;;;;;;5064842;28;20103;-56
2022/12/29 08:57:35;;;;;;;22.15;3.92;;;8.70;96.40;;;;;;5082093;28;20036;-57
2022/12/29 09:00:02;;;;;;;19.23;3.63;;;8.70;96.30;;;;;;5083469;28;20024;-57
2022/12/29 09:02:27;;;;;;;15.27;3.78;;;8.70;96.30;;;;;;5081423;28;20039;-57
2022/12/29 09:04:53;;;;;;;25.67;4.10;;;8.70;96.30;;;;;;5080326;28;20032;-56
2022/12/29 09:07:18;;;;;;;21.65;3.35;;;8.70;96.20;;;;;;5082944;28;20709;-56
2022/12/29 09:09:44;;;;;;;25.27;4.20;;;8.70;96.10;;;;;;5080763;28;20028;-56
2022/12/29 09:12:09;;;;;;;28.95;4.75;;;8.80;96.00;;;;;;5083346;28;20528;-57
2022/12/29 09:14:35;;;;;;;32.65;4.93;;;8.80;96.20;;;;;;5082801;28;20056;-57
2022/12/29 09:19:45;;;;;;;28.15;4.97;;;8.90;96.40;;;;;;5083438;28;20504;-57
2022/12/29 09:22:10;;;;;;;19.42;3.58;;;8.90;96.20;;;;;;5079947;28;20032;-57
2022/12/29 09:24:36;;;;;;;42.63;4.93;;;8.90;96.10;;;;;;5083272;28;20057;-57
2022/12/29 09:27:01;;;;;;;45.75;5.82;;;9.00;96.00;;;;;;5083834;28;20033;-57
2022/12/29 09:29:27;;;;;;;119.47;11.50;;;9.00;95.90;;;;;;5079876;28;20036;-57
2022/12/29 09:31:52;;;;;;;71.30;7.38;;;9.00;96.00;;;;;;5082438;28;20116;-56
2022/12/29 09:34:18;;;;;;;54.33;6.43;;;9.10;96.10;;;;;;5084217;28;20058;-56
2022/12/29 09:36:44;;;;;;;65.85;7.07;;;9.10;95.90;;;;;;5084698;28;20042;-57
2022/12/29 09:39:09;;;;;;;84.88;7.57;;;9.10;95.80;;;;;;5083902;28;20024;-57
2022/12/29 09:41:41;;;;;;;46.35;7.45;;;9.10;96.00;;;;;;5079566;28;20024;-57
2022/12/29 09:44:08;;;;;;;58.35;7.80;;;9.10;96.20;;;;;;5082255;28;20037;-56
2022/12/29 09:46:53;;;;;;;60.05;8.70;;;9.20;96.20;;;;;;5082229;28;20058;-56
2022/12/29 09:49:49;;;;;;;65.68;8.13;;;9.20;96.20;;;;;;5066578;28;20033;-56
2022/12/29 09:52:18;;;;;;;76.32;9.40;;;9.30;96.20;;;;;;5078016;28;20037;-57
2022/12/29 09:54:53;;;;;;;71.38;8.85;;;9.30;96.30;;;;;;5080342;28;20052;-56
2022/12/29 09:57:25;;;;;;;86.15;10.18;;;9.30;96.30;;;;;;5082825;28;20037;-56
2022/12/29 09:59:55;;;;;;;85.97;9.77;;;9.30;96.20;;;;;;5064804;28;20032;-56
2022/12/29 10:02:34;;;;;;;89.30;10.68;;;9.40;96.30;;;;;;5065659;28;20028;-59
2022/12/29 10:04:59;;;;;;;77.70;10.27;;;9.40;96.20;;;;;;5082250;28;20020;-60
2022/12/29 10:07:45;;;;;;;94.07;10.57;;;9.40;96.20;;;;;;5085212;28;20046;-59
2022/12/29 10:10:24;;;;;;;116.95;13.13;;;9.50;96.30;;;;;;5082210;28;20029;-59
2022/12/29 10:13:28;;;;;;;99.10;11.18;;;9.50;96.30;;;;;;5066654;28;20043;-59
2022/12/29 10:15:59;;;;;;;824.08;79.57;;;9.60;96.30;;;;;;5066369;28;20116;-60
2022/12/29 10:18:47;;;;;;;175.02;17.73;;;9.60;96.30;;;;;;5082713;28;20035;-59
2022/12/29 10:21:22;;;;;;;185.73;19.63;;;9.70;96.30;;;;;;5081951;28;20064;-59
2022/12/29 10:23:52;;;;;;;134.35;15.70;;;9.70;96.40;;;;;;5082383;28;20028;-59
2022/12/29 10:26:23;;;;;;;140.07;13.80;;;9.70;96.40;;;;;;5066053;28;20058;-59
2022/12/29 10:28:59;;;;;;;131.57;13.02;;;9.70;96.40;;;;;;5051232;28;20029;-59
2022/12/29 10:31:35;;;;;;;;;;;9.70;96.40;;;;;;5086481;28;20438;-60
2022/12/29 10:34:03;;;;;;;114.47;14.60;;;9.80;96.30;;;;;;5085470;28;19922;-59
2022/12/29 10:36:34;;;;;;;109.57;14.65;;;9.80;96.40;;;;;;5069581;28;20184;-59
2022/12/29 10:39:11;;;;;;;125.50;15.13;;;9.80;96.50;;;;;;5070028;28;20160;-60
2022/12/29 10:41:39;;;;;;;142.07;15.15;;;9.80;96.50;;;;;;5085610;28;20041;-60
2022/12/29 10:44:08;;;;;;;140.85;14.63;;;9.80;96.40;;;;;;5068891;28;20036;-59
2022/12/29 10:46:35;;;;;;;127.97;14.27;;;9.90;96.40;;;;;;5069237;28;20044;-59
2022/12/29 10:49:01;;;;;;;124.72;14.55;;;9.90;96.40;;;;;;5069116;28;20148;-60
2022/12/29 10:51:36;;;;;;;148.32;16.05;;;9.90;96.40;;;;;;5085508;28;20028;-59
2022/12/29 10:54:36;;;;;;;147.38;15.90;;;9.90;96.40;;;;;;5085403;28;20032;-59
2022/12/29 10:57:12;;;;;;;111.57;14.35;;;9.90;96.40;;;;;;5085634;28;20029;-59
2022/12/29 10:59:38;;;;;;;116.78;12.77;;;10.00;96.40;;;;;;5069530;28;20074;-59
2022/12/29 11:02:06;;;;;;;141.35;15.02;;;10.00;96.50;;;;;;5086918;28;20482;-59
2022/12/29 11:04:47;;;;;;;145.05;17.08;;;10.00;96.40;;;;;;5086813;28;20036;-59
2022/12/29 11:07:14;;;;;;;139.32;15.38;;;10.00;96.40;;;;;;5086598;28;20035;-59
2022/12/29 11:09:40;;;;;;;115.97;14.18;;;10.10;96.40;;;;;;5068134;28;20036;-59
2022/12/29 11:12:24;;;;;;;122.95;13.38;;;10.10;96.40;;;;;;5067909;28;20068;-60
2022/12/29 11:15:14;;;;;;;88.03;10.98;;;10.10;96.40;;;;;;5066654;28;20041;-59
2022/12/29 11:17:59;;;;;;;120.07;13.00;;;10.20;96.30;;;;;;5086103;28;20059;-59
2022/12/29 11:20:29;;;;;;;109.20;12.90;;;10.20;96.30;;;;;;5086262;28;20159;-59
2022/12/29 11:22:54;;;;;;;123.22;15.50;;;10.20;96.40;;;;;;5083787;28;20017;-60
2022/12/29 11:25:20;;;;;;;373.77;31.80;;;10.30;96.50;;;;;;5084369;28;20399;-60
2022/12/29 11:28:15;;;;;;;228.05;26.33;;;10.30;96.40;;;;;;5090092;28;20029;-60
2022/12/29 11:30:41;;;;;;;138.68;15.15;;;10.30;96.50;;;;;;5040983;28;20056;-60
2022/12/29 11:33:08;;;;;;;148.93;15.05;;;10.30;96.30;;;;;;5094216;28;20025;-59
2022/12/29 11:35:42;;;;;;;132.93;15.93;;;10.40;96.30;;;;;;5084749;28;20127;-60
2022/12/29 11:38:21;;;;;;;123.50;15.23;;;10.40;96.40;;;;;;5083911;28;20021;-59
2022/12/29 11:40:46;;;;;;;119.00;15.27;;;10.40;96.30;;;;;;5084023;28;20028;-59
2022/12/29 11:43:33;;;;;;;134.98;14.38;;;10.50;96.30;;;;;;5084295;28;20440;-59
2022/12/29 11:45:58;;;;;;;112.82;14.48;;;10.50;96.30;;;;;;5084765;28;20044;-60
2022/12/29 11:48:31;;;;;;;118.88;13.75;;;10.50;96.30;;;;;;5084202;28;20028;-59
2022/12/29 11:51:00;;;;;;;92.38;12.32;;;10.50;96.30;;;;;;5084629;28;20033;-59
2022/12/29 11:53:46;;;;;;;106.60;13.35;;;10.50;96.20;;;;;;5084337;28;20020;-60
2022/12/29 11:56:22;;;;;;;80.18;10.52;;;10.60;96.20;;;;;;5084556;28;20032;-59
2022/12/29 11:58:49;;;;;;;85.68;10.38;;;10.60;95.90;;;;;;5084345;28;20131;-59
2022/12/29 12:01:36;;;;;;;105.88;13.10;;;10.60;95.80;;;;;;5084408;28;20396;-59
2022/12/29 12:04:09;;;;;;;160.98;15.93;;;10.60;95.90;;;;;;5083994;28;20053;-59
2022/12/29 12:06:45;;;;;;;163.43;18.15;;;10.70;96.00;;;;;;5083865;28;20515;-59
2022/12/29 12:09:16;;;;;;;193.35;20.23;;;10.70;96.10;;;;;;5083937;28;20071;-59
2022/12/29 12:11:43;;;;;;;156.40;16.17;;;10.70;96.20;;;;;;5083679;28;20112;-59
2022/12/29 12:14:19;;;;;;;150.32;18.05;;;10.80;96.20;;;;;;5083672;28;20093;-59
2022/12/29 12:16:54;;;;;;;158.43;17.88;;;10.80;96.10;;;;;;5067276;28;20031;-59
2022/12/29 12:19:38;;;;;;;147.65;17.27;;;10.80;96.10;;;;;;5076640;28;20036;-59
2022/12/29 12:22:10;;;;;;;133.00;16.85;;;10.90;96.10;;;;;;5078899;28;20033;-59
2022/12/29 12:24:50;;;;;;;166.63;19.23;;;10.90;96.20;;;;;;5090682;28;20028;-59
2022/12/29 12:27:20;;;;;;;126.80;16.27;;;10.90;96.30;;;;;;5083604;28;20063;-59
2022/12/29 12:29:51;;;;;;;173.63;18.63;;;11.00;96.30;;;;;;5083486;28;20120;-59
2022/12/29 12:32:45;;;;;;;146.00;17.30;;;11.00;96.30;;;;;;5085166;28;20054;-59
2022/12/29 12:35:12;;;;;;;191.60;18.35;;;11.00;96.40;;;;;;5089531;28;20040;-59
2022/12/29 12:37:53;;;;;;;165.95;18.08;;;11.10;96.40;;;;;;5096083;28;20042;-59
2022/12/29 12:40:47;;;;;;;145.70;16.85;;;11.10;96.40;;;;;;5067400;28;20035;-59
2022/12/29 12:43:27;;;;;;;172.60;20.05;;;11.10;96.40;;;;;;5084616;28;20023;-59
2022/12/29 12:46:11;;;;;;;150.50;18.10;;;11.10;96.40;;;;;;5084678;28;20028;-59
2022/12/29 12:49:03;;;;;;;175.43;19.00;;;11.20;96.40;;;;;;5085159;28;20028;-59
2022/12/29 12:51:58;;;;;;;155.20;16.92;;;11.20;96.40;;;;;;5080020;28;20036;-59
2022/12/29 12:54:37;;;;;;;197.65;19.08;;;11.20;96.30;;;;;;5060723;28;20032;-59
2022/12/29 12:57:22;;;;;;;160.40;20.08;;;11.30;96.40;;;;;;5083697;28;20016;-59
2022/12/29 13:00:06;;;;;;;219.73;23.70;;;11.30;96.40;;;;;;5063276;28;20029;-59
2022/12/29 13:02:55;;;;;;;241.60;21.02;;;11.30;96.50;;;;;;5084843;28;20263;-60
2022/12/29 13:05:33;;;;;;;172.70;19.63;;;11.40;96.50;;;;;;5083464;28;20037;-59
2022/12/29 13:08:10;;;;;;;180.13;22.63;;;11.40;96.50;;;;;;5073532;28;20035;-59
2022/12/29 13:10:43;;;;;;;234.95;23.52;;;11.40;96.40;;;;;;5081303;28;20048;-59
2022/12/29 13:13:47;;;;;;;246.57;24.08;;;11.50;96.20;;;;;;5083017;28;20023;-60
2022/12/29 13:16:51;;;;;;;198.27;21.90;;;11.50;96.10;;;;;;5089053;28;20107;-59
2022/12/29 13:19:54;;;;;;;203.60;21.30;;;11.50;96.20;;;;;;5059559;28;20465;-59
2022/12/29 13:22:36;;;;;;;227.77;23.73;;;11.50;96.20;;;;;;5071195;28;20032;-59
2022/12/29 13:25:38;;;;;;;239.88;24.88;;;11.50;96.30;;;;;;5081794;28;20036;-59
2022/12/29 13:28:33;;;;;;;282.85;27.02;;;11.60;96.30;;;;;;5092860;28;20136;-60
2022/12/29 13:31:20;;;;;;;203.20;21.17;;;11.60;96.20;;;;;;5070242;28;20059;-60
2022/12/29 13:34:07;;;;;;;260.45;26.98;;;11.60;96.00;;;;;;5080329;28;20031;-60